sensor_id;sensor_type;location;lat;lon;timestamp;pressure;altitude;pressure_sealevel;temperature;humidity
20119;BME280;10220;42.716;23.306;2023-07-24T00:00:14;95480.69;;;21.92;100.00
20119;BME280;10220;42.716;23.306;2023-07-24T00:02:39;95477.22;;;21.62;100.00
20119;BME280;10220;42.716;23.306;2023-07-24T00:05:05;95483.81;;;21.49;100.00
20119;BME280;10220;42.716;23.306;2023-07-24T00:07:30;95473.53;;;21.83;100.00
20119;BME280;10220;42.716;23.306;2023-07-24T00:09:55;95471.13;;;21.46;100.00
20119;BME280;10220;42.716;23.306;2023-07-24T00:12:22;95476.59;;;21.10;100.00
20119;BME280;10220;42.716;23.306;2023-07-24T00:14:47;95487.38;;;21.09;100.00
20119;BME280;10220;42.716;23.306;2023-07-24T00:17:13;95482.88;;;20.99;100.00
20119;BME280;10220;42.716;23.306;2023-07-24T00:19:38;95476.81;;;20.94;100.00
20119;BME280;10220;42.716;23.306;2023-07-24T00:22:04;95481.06;;;21.05;100.00
20119;BME280;10220;42.716;23.306;2023-07-24T00:24:30;95479.19;;;20.95;100.00
20119;BME280;10220;42.716;23.306;2023-07-24T00:26:56;95463.75;;;21.33;100.00
20119;BME280;10220;42.716;23.306;2023-07-24T00:29:21;95482.50;;;21.62;100.00
20119;BME280;10220;42.716;23.306;2023-07-24T00:31:47;95476.91;;;21.43;100.00
20119;BME280;10220;42.716;23.306;2023-07-24T00:34:13;95449.66;;;20.98;100.00
20119;BME280;10220;42.716;23.306;2023-07-24T00:36:38;95474.50;;;21.12;100.00
20119;BME280;10220;42.716;23.306;2023-07-24T00:39:03;95471.31;;;21.05;100.00
20119;BME280;10220;42.716;23.306;2023-07-24T00:41:29;95476.53;;;20.95;100.00
20119;BME280;10220;42.716;23.306;2023-07-24T00:43:54;95474.50;;;21.12;100.00
20119;BME280;10220;42.716;23.306;2023-07-24T00:46:20;95479.72;;;20.97;100.00
20119;BME280;10220;42.716;23.306;2023-07-24T00:48:46;95468.41;;;21.02;100.00
20119;BME280;10220;42.716;23.306;2023-07-24T00:51:11;95465.03;;;21.21;100.00
20119;BME280;10220;42.716;23.306;2023-07-24T00:53:37;95473.53;;;21.53;100.00
20119;BME280;10220;42.716;23.306;2023-07-24T00:56:02;95468.28;;;21.63;100.00
20119;BME280;10220;42.716;23.306;2023-07-24T00:58:28;95480.88;;;21.41;100.00
20119;BME280;10220;42.716;23.306;2023-07-24T01:00:54;95466.91;;;21.40;100.00
20119;BME280;10220;42.716;23.306;2023-07-24T01:03:20;95476.94;;;21.33;100.00
20119;BME280;10220;42.716;23.306;2023-07-24T01:05:47;95470.03;;;21.13;100.00
20119;BME280;10220;42.716;23.306;2023-07-24T01:08:13;95456.78;;;20.93;100.00
20119;BME280;10220;42.716;23.306;2023-07-24T01:10:39;95466.22;;;20.79;100.00
20119;BME280;10220;42.716;23.306;2023-07-24T01:13:31;95457.34;;;20.39;100.00
20119;BME280;10220;42.716;23.306;2023-07-24T01:16:05;95461.06;;;20.53;100.00
20119;BME280;10220;42.716;23.306;2023-07-24T01:18:34;95452.84;;;20.39;100.00
20119;BME280;10220;42.716;23.306;2023-07-24T01:21:04;95457.38;;;21.20;100.00
20119;BME280;10220;42.716;23.306;2023-07-24T01:26:15;95448.19;;;21.47;100.00
20119;BME280;10220;42.716;23.306;2023-07-24T01:28:41;95453.78;;;21.50;100.00
20119;BME280;10220;42.716;23.306;2023-07-24T01:31:07;95456.41;;;21.50;100.00
20119;BME280;10220;42.716;23.306;2023-07-24T01:33:32;95429.19;;;21.45;100.00
20119;BME280;10220;42.716;23.306;2023-07-24T01:36:02;95455.28;;;21.26;100.00
20119;BME280;10220;42.716;23.306;2023-07-24T01:38:28;95448.38;;;21.06;100.00
20119;BME280;10220;42.716;23.306;2023-07-24T01:40:56;95471.81;;;21.02;100.00
20119;BME280;10220;42.716;23.306;2023-07-24T01:43:22;95477.66;;;21.09;100.00
20119;BME280;10220;42.716;23.306;2023-07-24T01:45:48;95491.78;;;20.83;100.00
20119;BME280;10220;42.716;23.306;2023-07-24T01:48:13;95483.16;;;20.47;100.00
20119;BME280;10220;42.716;23.306;2023-07-24T01:50:38;95464.78;;;20.52;100.00
20119;BME280;10220;42.716;23.306;2023-07-24T01:53:04;95468.28;;;20.72;100.00
20119;BME280;10220;42.716;23.306;2023-07-24T01:55:29;95469.25;;;20.56;100.00
20119;BME280;10220;42.716;23.306;2023-07-24T01:57:55;95472.06;;;20.40;100.00
20119;BME280;10220;42.716;23.306;2023-07-24T02:00:20;95467.69;;;20.09;100.00
20119;BME280;10220;42.716;23.306;2023-07-24T02:02:45;95466.00;;;19.98;100.00
20119;BME280;10220;42.716;23.306;2023-07-24T02:05:11;95456.00;;;19.95;100.00
20119;BME280;10220;42.716;23.306;2023-07-24T02:07:37;95469.03;;;20.16;100.00
20119;BME280;10220;42.716;23.306;2023-07-24T02:10:03;95449.78;;;20.11;100.00
20119;BME280;10220;42.716;23.306;2023-07-24T02:12:28;95468.72;;;20.08;100.00
20119;BME280;10220;42.716;23.306;2023-07-24T02:14:54;95473.66;;;19.95;100.00
20119;BME280;10220;42.716;23.306;2023-07-24T02:17:20;95467.22;;;19.86;100.00
20119;BME280;10220;42.716;23.306;2023-07-24T02:19:46;95474.94;;;19.92;100.00
20119;BME280;10220;42.716;23.306;2023-07-24T02:22:11;95468.34;;;19.58;100.00
20119;BME280;10220;42.716;23.306;2023-07-24T02:24:37;95462.00;;;19.54;100.00
20119;BME280;10220;42.716;23.306;2023-07-24T02:27:04;95447.44;;;19.78;100.00
20119;BME280;10220;42.716;23.306;2023-07-24T02:29:29;95456.94;;;20.20;100.00
20119;BME280;10220;42.716;23.306;2023-07-24T02:31:54;95457.53;;;20.27;100.00
20119;BME280;10220;42.716;23.306;2023-07-24T02:34:20;95452.75;;;19.83;100.00
20119;BME280;10220;42.716;23.306;2023-07-24T02:36:52;95447.13;;;19.75;100.00
20119;BME280;10220;42.716;23.306;2023-07-24T02:39:18;95457.13;;;19.73;100.00
20119;BME280;10220;42.716;23.306;2023-07-24T02:41:43;95460.44;;;19.58;100.00
20119;BME280;10220;42.716;23.306;2023-07-24T02:44:08;95454.31;;;19.48;100.00
20119;BME280;10220;42.716;23.306;2023-07-24T02:46:34;95454.50;;;19.42;100.00
20119;BME280;10220;42.716;23.306;2023-07-24T02:48:59;95454.00;;;19.44;100.00
20119;BME280;10220;42.716;23.306;2023-07-24T02:51:24;95452.38;;;19.39;100.00
20119;BME280;10220;42.716;23.306;2023-07-24T02:53:50;95446.72;;;19.88;100.00
20119;BME280;10220;42.716;23.306;2023-07-24T02:56:15;95446.59;;;20.04;100.00
20119;BME280;10220;42.716;23.306;2023-07-24T02:58:41;95434.94;;;19.59;100.00
20119;BME280;10220;42.716;23.306;2023-07-24T03:01:07;95457.66;;;19.43;100.00
20119;BME280;10220;42.716;23.306;2023-07-24T03:03:35;95452.25;;;19.55;100.00
20119;BME280;10220;42.716;23.306;2023-07-24T03:06:01;95449.63;;;19.55;100.00
20119;BME280;10220;42.716;23.306;2023-07-24T03:08:26;95449.63;;;19.55;100.00
20119;BME280;10220;42.716;23.306;2023-07-24T03:10:52;95450.41;;;19.55;100.00
20119;BME280;10220;42.716;23.306;2023-07-24T03:13:17;95458.44;;;19.70;100.00
20119;BME280;10220;42.716;23.306;2023-07-24T03:15:43;95456.41;;;19.82;100.00
20119;BME280;10220;42.716;23.306;2023-07-24T03:18:08;95452.53;;;19.90;100.00
20119;BME280;10220;42.716;23.306;2023-07-24T03:20:33;95455.09;;;20.16;100.00
20119;BME280;10220;42.716;23.306;2023-07-24T03:22:59;95453.50;;;20.15;100.00
20119;BME280;10220;42.716;23.306;2023-07-24T03:25:24;95449.47;;;20.49;100.00
20119;BME280;10220;42.716;23.306;2023-07-24T03:27:50;95455.03;;;20.57;100.00
20119;BME280;10220;42.716;23.306;2023-07-24T03:30:15;95446.03;;;20.02;100.00
20119;BME280;10220;42.716;23.306;2023-07-24T03:32:41;95452.09;;;19.66;100.00
20119;BME280;10220;42.716;23.306;2023-07-24T03:35:07;95447.72;;;19.45;100.00
20119;BME280;10220;42.716;23.306;2023-07-24T03:37:34;95454.97;;;19.65;100.00
20119;BME280;10220;42.716;23.306;2023-07-24T03:39:59;95457.88;;;19.68;100.00
20119;BME280;10220;42.716;23.306;2023-07-24T03:42:30;95452.09;;;19.35;100.00
20119;BME280;10220;42.716;23.306;2023-07-24T03:44:56;95447.66;;;19.41;100.00
20119;BME280;10220;42.716;23.306;2023-07-24T03:47:23;95447.38;;;19.11;100.00
20119;BME280;10220;42.716;23.306;2023-07-24T03:49:48;95451.84;;;19.10;100.00
20119;BME280;10220;42.716;23.306;2023-07-24T03:52:14;95459.53;;;19.17;100.00
20119;BME280;10220;42.716;23.306;2023-07-24T03:54:39;95457.75;;;19.22;100.00
20119;BME280;10220;42.716;23.306;2023-07-24T03:57:05;95453.03;;;19.24;100.00
20119;BME280;10220;42.716;23.306;2023-07-24T03:59:30;95456.22;;;19.26;100.00
20119;BME280;10220;42.716;23.306;2023-07-24T04:01:57;95454.53;;;19.15;100.00
20119;BME280;10220;42.716;23.306;2023-07-24T04:04:22;95454.81;;;19.19;100.00
20119;BME280;10220;42.716;23.306;2023-07-24T04:06:48;95440.53;;;19.10;100.00
20119;BME280;10220;42.716;23.306;2023-07-24T04:09:13;95457.63;;;19.12;100.00
20119;BME280;10220;42.716;23.306;2023-07-24T04:11:44;95464.03;;;19.21;100.00
20119;BME280;10220;42.716;23.306;2023-07-24T04:14:10;95454.41;;;19.32;100.00
20119;BME280;10220;42.716;23.306;2023-07-24T04:16:36;95459.63;;;19.53;100.00
20119;BME280;10220;42.716;23.306;2023-07-24T04:19:01;95469.06;;;20.21;100.00
20119;BME280;10220;42.716;23.306;2023-07-24T04:21:27;95473.53;;;19.85;100.00
20119;BME280;10220;42.716;23.306;2023-07-24T04:23:52;95478.09;;;19.94;100.00
20119;BME280;10220;42.716;23.306;2023-07-24T04:26:17;95472.13;;;20.08;100.00
20119;BME280;10220;42.716;23.306;2023-07-24T04:28:43;95472.69;;;20.10;100.00
20119;BME280;10220;42.716;23.306;2023-07-24T04:31:08;95473.94;;;20.03;100.00
20119;BME280;10220;42.716;23.306;2023-07-24T04:33:34;95474.50;;;20.10;100.00
20119;BME280;10220;42.716;23.306;2023-07-24T04:35:59;95472.97;;;19.83;100.00
20119;BME280;10220;42.716;23.306;2023-07-24T04:38:25;95475.59;;;20.09;100.00
20119;BME280;10220;42.716;23.306;2023-07-24T04:40:50;95470.25;;;20.40;100.00
20119;BME280;10220;42.716;23.306;2023-07-24T04:43:16;95481.38;;;20.57;100.00
20119;BME280;10220;42.716;23.306;2023-07-24T04:45:41;95472.63;;;20.47;100.00
20119;BME280;10220;42.716;23.306;2023-07-24T04:48:06;95480.03;;;20.50;100.00
20119;BME280;10220;42.716;23.306;2023-07-24T04:50:32;95458.09;;;20.95;100.00
20119;BME280;10220;42.716;23.306;2023-07-24T04:52:58;95482.06;;;20.89;100.00
20119;BME280;10220;42.716;23.306;2023-07-24T04:55:24;95477.84;;;20.93;100.00
20119;BME280;10220;42.716;23.306;2023-07-24T04:57:49;95475.22;;;20.93;100.00
20119;BME280;10220;42.716;23.306;2023-07-24T05:00:15;95481.38;;;21.28;100.00
20119;BME280;10220;42.716;23.306;2023-07-24T05:02:40;95491.22;;;22.07;100.00
20119;BME280;10220;42.716;23.306;2023-07-24T05:05:06;95493.84;;;22.02;100.00
20119;BME280;10220;42.716;23.306;2023-07-24T05:07:32;95486.72;;;22.22;100.00
20119;BME280;10220;42.716;23.306;2023-07-24T05:09:57;95488.06;;;23.12;100.00
20119;BME280;10220;42.716;23.306;2023-07-24T05:12:23;95486.63;;;23.78;100.00
20119;BME280;10220;42.716;23.306;2023-07-24T05:14:48;95493.72;;;23.44;100.00
20119;BME280;10220;42.716;23.306;2023-07-24T05:17:14;95498.91;;;23.06;100.00
20119;BME280;10220;42.716;23.306;2023-07-24T05:19:39;95487.59;;;23.01;100.00
20119;BME280;10220;42.716;23.306;2023-07-24T05:22:04;95483.09;;;22.96;100.00
20119;BME280;10220;42.716;23.306;2023-07-24T05:24:31;95483.03;;;22.13;100.00
20119;BME280;10220;42.716;23.306;2023-07-24T05:26:56;95489.00;;;22.68;100.00
20119;BME280;10220;42.716;23.306;2023-07-24T05:29:21;95485.31;;;23.32;100.00
20119;BME280;10220;42.716;23.306;2023-07-24T05:31:47;95494.00;;;23.38;100.00
20119;BME280;10220;42.716;23.306;2023-07-24T05:34:12;95479.56;;;23.63;100.00
20119;BME280;10220;42.716;23.306;2023-07-24T05:36:38;95484.97;;;23.44;100.00
20119;BME280;10220;42.716;23.306;2023-07-24T05:39:05;95490.22;;;23.05;100.00
20119;BME280;10220;42.716;23.306;2023-07-24T05:41:30;95477.91;;;23.29;100.00
20119;BME280;10220;42.716;23.306;2023-07-24T05:43:55;95482.41;;;23.29;100.00
20119;BME280;10220;42.716;23.306;2023-07-24T05:46:21;95482.22;;;24.25;100.00
20119;BME280;10220;42.716;23.306;2023-07-24T05:48:47;95474.81;;;24.97;100.00
20119;BME280;10220;42.716;23.306;2023-07-24T05:51:13;95474.28;;;24.77;100.00
20119;BME280;10220;42.716;23.306;2023-07-24T05:53:38;95467.63;;;24.79;100.00
20119;BME280;10220;42.716;23.306;2023-07-24T05:56:04;95470.22;;;24.37;100.00
20119;BME280;10220;42.716;23.306;2023-07-24T05:58:29;95467.78;;;25.11;100.00
20119;BME280;10220;42.716;23.306;2023-07-24T06:00:55;95464.97;;;25.94;100.00
20119;BME280;10220;42.716;23.306;2023-07-24T06:03:24;95463.81;;;26.00;100.00
20119;BME280;10220;42.716;23.306;2023-07-24T06:05:53;95458.63;;;26.08;95.26
20119;BME280;10220;42.716;23.306;2023-07-24T06:08:20;95458.25;;;26.60;93.29
20119;BME280;10220;42.716;23.306;2023-07-24T06:10:49;95455.38;;;26.57;94.22
20119;BME280;10220;42.716;23.306;2023-07-24T06:13:16;95448.28;;;26.07;96.69
20119;BME280;10220;42.716;23.306;2023-07-24T06:15:41;95459.53;;;26.17;98.11
20119;BME280;10220;42.716;23.306;2023-07-24T06:18:07;95461.41;;;26.62;91.05
20119;BME280;10220;42.716;23.306;2023-07-24T06:20:32;95459.81;;;26.16;93.27
20119;BME280;10220;42.716;23.306;2023-07-24T06:22:58;95455.78;;;26.50;94.52
20119;BME280;10220;42.716;23.306;2023-07-24T06:25:23;95452.69;;;26.30;91.07
20119;BME280;10220;42.716;23.306;2023-07-24T06:27:48;95460.00;;;26.51;95.09
20119;BME280;10220;42.716;23.306;2023-07-24T06:30:14;95457.75;;;25.63;100.00
20119;BME280;10220;42.716;23.306;2023-07-24T06:32:39;95443.69;;;25.62;98.39
20119;BME280;10220;42.716;23.306;2023-07-24T06:35:05;95452.47;;;25.03;100.00
20119;BME280;10220;42.716;23.306;2023-07-24T06:37:31;95462.22;;;25.49;100.00
20119;BME280;10220;42.716;23.306;2023-07-24T06:39:56;95459.34;;;25.27;100.00
20119;BME280;10220;42.716;23.306;2023-07-24T06:42:22;95461.84;;;25.55;100.00
20119;BME280;10220;42.716;23.306;2023-07-24T06:44:47;95455.47;;;25.20;100.00
20119;BME280;10220;42.716;23.306;2023-07-24T06:47:13;95447.88;;;24.90;100.00
20119;BME280;10220;42.716;23.306;2023-07-24T06:49:38;95439.69;;;24.63;100.00
20119;BME280;10220;42.716;23.306;2023-07-24T06:52:04;95453.19;;;24.43;100.00
20119;BME280;10220;42.716;23.306;2023-07-24T06:54:29;95463.00;;;24.43;100.00
20119;BME280;10220;42.716;23.306;2023-07-24T06:56:55;95447.19;;;24.33;100.00
20119;BME280;10220;42.716;23.306;2023-07-24T06:59:20;95461.81;;;24.54;100.00
20119;BME280;10220;42.716;23.306;2023-07-24T07:01:45;95454.50;;;24.69;100.00
20119;BME280;10220;42.716;23.306;2023-07-24T07:04:11;95465.28;;;24.78;100.00
20119;BME280;10220;42.716;23.306;2023-07-24T07:06:36;95457.81;;;24.80;100.00
20119;BME280;10220;42.716;23.306;2023-07-24T07:09:02;95455.56;;;24.45;100.00
20119;BME280;10220;42.716;23.306;2023-07-24T07:11:28;95461.13;;;24.43;100.00
20119;BME280;10220;42.716;23.306;2023-07-24T07:13:53;95460.97;;;24.82;100.00
20119;BME280;10220;42.716;23.306;2023-07-24T07:16:19;95470.63;;;24.96;100.00
20119;BME280;10220;42.716;23.306;2023-07-24T07:18:44;95456.75;;;25.22;100.00
20119;BME280;10220;42.716;23.306;2023-07-24T07:21:10;95448.44;;;25.10;100.00
20119;BME280;10220;42.716;23.306;2023-07-24T07:23:35;95450.03;;;25.48;100.00
20119;BME280;10220;42.716;23.306;2023-07-24T07:26:01;95441.31;;;25.24;100.00
20119;BME280;10220;42.716;23.306;2023-07-24T07:28:27;95446.28;;;25.67;100.00
20119;BME280;10220;42.716;23.306;2023-07-24T07:30:53;95443.13;;;26.29;94.64
20119;BME280;10220;42.716;23.306;2023-07-24T07:33:19;95436.16;;;26.33;99.00
20119;BME280;10220;42.716;23.306;2023-07-24T07:35:47;95439.63;;;26.47;95.96
20119;BME280;10220;42.716;23.306;2023-07-24T07:38:12;95437.75;;;26.61;96.29
20119;BME280;10220;42.716;23.306;2023-07-24T07:40:38;95428.00;;;26.83;93.77
20119;BME280;10220;42.716;23.306;2023-07-24T07:43:04;95428.28;;;27.08;89.12
20119;BME280;10220;42.716;23.306;2023-07-24T07:45:30;95429.28;;;27.12;87.84
20119;BME280;10220;42.716;23.306;2023-07-24T07:47:55;95431.16;;;26.98;89.77
20119;BME280;10220;42.716;23.306;2023-07-24T07:50:21;95421.53;;;27.02;90.42
20119;BME280;10220;42.716;23.306;2023-07-24T07:52:49;95404.75;;;26.88;87.19
20119;BME280;10220;42.716;23.306;2023-07-24T07:55:15;95430.50;;;27.41;87.66
20119;BME280;10220;42.716;23.306;2023-07-24T07:57:40;95426.97;;;27.19;86.15
20119;BME280;10220;42.716;23.306;2023-07-24T08:00:06;95431.63;;;27.14;84.71
20119;BME280;10220;42.716;23.306;2023-07-24T08:02:32;95432.44;;;27.14;83.03
20119;BME280;10220;42.716;23.306;2023-07-24T08:04:58;95432.28;;;27.32;82.64
20119;BME280;10220;42.716;23.306;2023-07-24T08:07:24;95429.22;;;27.25;85.93
20119;BME280;10220;42.716;23.306;2023-07-24T08:09:49;95430.09;;;27.70;78.34
20119;BME280;10220;42.716;23.306;2023-07-24T08:12:15;95432.66;;;28.18;73.45
20119;BME280;10220;42.716;23.306;2023-07-24T08:14:40;95432.13;;;28.38;69.75
20119;BME280;10220;42.716;23.306;2023-07-24T08:17:06;95425.84;;;27.90;75.78
20119;BME280;10220;42.716;23.306;2023-07-24T08:19:31;95411.81;;;27.98;76.24
20119;BME280;10220;42.716;23.306;2023-07-24T08:21:56;95419.53;;;28.30;73.79
20119;BME280;10220;42.716;23.306;2023-07-24T08:24:22;95411.13;;;28.45;69.72
20119;BME280;10220;42.716;23.306;2023-07-24T08:26:48;95418.09;;;28.24;71.33
20119;BME280;10220;42.716;23.306;2023-07-24T08:29:13;95409.28;;;28.15;71.84
20119;BME280;10220;42.716;23.306;2023-07-24T08:31:38;95396.25;;;27.70;73.21
20119;BME280;10220;42.716;23.306;2023-07-24T08:34:06;95399.66;;;28.36;76.92
20119;BME280;10220;42.716;23.306;2023-07-24T08:36:31;95396.06;;;28.79;74.06
20119;BME280;10220;42.716;23.306;2023-07-24T08:38:57;95386.03;;;29.10;68.56
20119;BME280;10220;42.716;23.306;2023-07-24T08:41:22;95394.28;;;29.56;63.68
20119;BME280;10220;42.716;23.306;2023-07-24T08:43:48;95392.72;;;29.55;68.04
20119;BME280;10220;42.716;23.306;2023-07-24T08:46:17;95390.94;;;29.08;68.90
20119;BME280;10220;42.716;23.306;2023-07-24T08:48:43;95391.75;;;29.42;63.16
20119;BME280;10220;42.716;23.306;2023-07-24T08:51:13;95381.41;;;29.32;64.83
20119;BME280;10220;42.716;23.306;2023-07-24T08:53:41;95388.25;;;29.08;65.25
20119;BME280;10220;42.716;23.306;2023-07-24T08:56:08;95377.09;;;29.06;65.30
20119;BME280;10220;42.716;23.306;2023-07-24T08:58:34;95387.31;;;29.12;64.76
20119;BME280;10220;42.716;23.306;2023-07-24T09:01:01;95376.34;;;29.14;64.15
20119;BME280;10220;42.716;23.306;2023-07-24T09:03:28;95384.38;;;29.31;63.09
20119;BME280;10220;42.716;23.306;2023-07-24T09:05:54;95390.50;;;29.40;63.60
20119;BME280;10220;42.716;23.306;2023-07-24T09:08:30;95372.59;;;29.40;64.64
20119;BME280;10220;42.716;23.306;2023-07-24T09:10:56;95375.22;;;29.99;61.16
20119;BME280;10220;42.716;23.306;2023-07-24T09:13:22;95373.34;;;29.91;60.49
20119;BME280;10220;42.716;23.306;2023-07-24T09:15:47;95365.28;;;30.08;60.24
20119;BME280;10220;42.716;23.306;2023-07-24T09:18:12;95363.94;;;30.31;61.82
20119;BME280;10220;42.716;23.306;2023-07-24T09:20:42;95359.72;;;30.67;59.83
20119;BME280;10220;42.716;23.306;2023-07-24T09:23:09;95365.09;;;30.88;57.22
20119;BME280;10220;42.716;23.306;2023-07-24T09:25:37;95354.38;;;30.96;57.22
20119;BME280;10220;42.716;23.306;2023-07-24T09:28:10;95355.28;;;31.00;55.69
20119;BME280;10220;42.716;23.306;2023-07-24T09:30:37;95341.38;;;30.78;57.23
20119;BME280;10220;42.716;23.306;2023-07-24T09:33:02;95341.72;;;31.05;56.62
20119;BME280;10220;42.716;23.306;2023-07-24T09:35:28;95347.00;;;31.34;56.26
20119;BME280;10220;42.716;23.306;2023-07-24T09:38:11;95330.34;;;31.08;54.89
20119;BME280;10220;42.716;23.306;2023-07-24T09:40:40;95331.38;;;30.66;56.25
20119;BME280;10220;42.716;23.306;2023-07-24T09:43:22;95328.88;;;31.31;58.54
20119;BME280;10220;42.716;23.306;2023-07-24T09:45:49;95323.00;;;30.96;56.01
20119;BME280;10220;42.716;23.306;2023-07-24T09:48:16;95310.09;;;31.31;57.31
20119;BME280;10220;42.716;23.306;2023-07-24T09:50:44;95317.91;;;31.44;53.76
20119;BME280;10220;42.716;23.306;2023-07-24T09:53:38;95311.97;;;31.71;56.01
20119;BME280;10220;42.716;23.306;2023-07-24T09:56:08;95318.56;;;32.17;53.37
20119;BME280;10220;42.716;23.306;2023-07-24T09:58:36;95309.75;;;31.73;53.28
20119;BME280;10220;42.716;23.306;2023-07-24T10:01:06;95310.31;;;32.11;54.64
20119;BME280;10220;42.716;23.306;2023-07-24T10:03:46;95303.31;;;31.86;51.46
20119;BME280;10220;42.716;23.306;2023-07-24T10:06:13;95292.88;;;32.28;54.14
20119;BME280;10220;42.716;23.306;2023-07-24T10:08:43;95294.81;;;32.52;51.09
20119;BME280;10220;42.716;23.306;2023-07-24T10:11:11;95290.44;;;32.98;50.06
20119;BME280;10220;42.716;23.306;2023-07-24T10:13:36;95292.22;;;32.55;49.92
20119;BME280;10220;42.716;23.306;2023-07-24T10:16:03;95298.47;;;32.35;50.39
20119;BME280;10220;42.716;23.306;2023-07-24T10:18:33;95280.69;;;32.43;51.09
20119;BME280;10220;42.716;23.306;2023-07-24T10:21:06;95276.88;;;32.32;52.72
20119;BME280;10220;42.716;23.306;2023-07-24T10:23:36;95274.13;;;33.03;49.87
20119;BME280;10220;42.716;23.306;2023-07-24T10:26:03;95271.25;;;32.84;49.50
20119;BME280;10220;42.716;23.306;2023-07-24T10:28:40;95258.69;;;32.88;48.94
20119;BME280;10220;42.716;23.306;2023-07-24T10:31:23;95269.88;;;32.90;51.37
20119;BME280;10220;42.716;23.306;2023-07-24T10:33:49;95260.41;;;33.47;48.77
20119;BME280;10220;42.716;23.306;2023-07-24T10:36:20;95254.22;;;33.59;47.30
20119;BME280;10220;42.716;23.306;2023-07-24T10:38:52;95259.63;;;33.47;48.57
20119;BME280;10220;42.716;23.306;2023-07-24T10:41:18;95256.56;;;33.60;49.46
20119;BME280;10220;42.716;23.306;2023-07-24T10:46:14;95247.19;;;33.85;45.57
20119;BME280;10220;42.716;23.306;2023-07-24T10:48:45;95246.59;;;33.61;47.96
20119;BME280;10220;42.716;23.306;2023-07-24T10:51:11;95246.19;;;33.20;49.78
20119;BME280;10220;42.716;23.306;2023-07-24T10:53:43;95244.16;;;33.87;49.17
20119;BME280;10220;42.716;23.306;2023-07-24T10:56:09;95223.97;;;34.08;47.10
20119;BME280;10220;42.716;23.306;2023-07-24T10:58:34;95240.19;;;33.96;47.22
20119;BME280;10220;42.716;23.306;2023-07-24T11:01:03;95239.16;;;34.16;48.26
20119;BME280;10220;42.716;23.306;2023-07-24T11:03:30;95237.47;;;34.42;47.91
20119;BME280;10220;42.716;23.306;2023-07-24T11:05:57;95242.63;;;34.47;47.50
20119;BME280;10220;42.716;23.306;2023-07-24T11:08:23;95230.72;;;34.48;45.44
20119;BME280;10220;42.716;23.306;2023-07-24T11:10:52;95226.25;;;34.90;42.58
20119;BME280;10220;42.716;23.306;2023-07-24T11:13:20;95208.94;;;35.47;41.55
20119;BME280;10220;42.716;23.306;2023-07-24T11:15:47;95209.34;;;35.90;40.90
20119;BME280;10220;42.716;23.306;2023-07-24T11:18:13;95206.94;;;36.08;40.53
20119;BME280;10220;42.716;23.306;2023-07-24T11:20:48;95210.25;;;35.98;40.63
20119;BME280;10220;42.716;23.306;2023-07-24T11:23:15;95205.31;;;35.59;42.65
20119;BME280;10220;42.716;23.306;2023-07-24T11:25:41;95205.06;;;35.67;43.37
20119;BME280;10220;42.716;23.306;2023-07-24T11:28:08;95213.59;;;35.69;43.62
20119;BME280;10220;42.716;23.306;2023-07-24T11:30:39;95206.81;;;35.37;43.30
20119;BME280;10220;42.716;23.306;2023-07-24T11:33:12;95196.91;;;35.41;42.45
20119;BME280;10220;42.716;23.306;2023-07-24T11:35:38;95201.97;;;34.71;43.41
20119;BME280;10220;42.716;23.306;2023-07-24T11:38:05;95202.53;;;34.11;43.37
20119;BME280;10220;42.716;23.306;2023-07-24T11:40:35;95190.09;;;33.92;44.32
20119;BME280;10220;42.716;23.306;2023-07-24T11:43:02;95182.03;;;33.61;45.46
20119;BME280;10220;42.716;23.306;2023-07-24T11:45:29;95177.94;;;33.82;46.84
20119;BME280;10220;42.716;23.306;2023-07-24T11:47:55;95180.78;;;34.20;46.02
20119;BME280;10220;42.716;23.306;2023-07-24T11:50:22;95182.00;;;34.22;45.78
20119;BME280;10220;42.716;23.306;2023-07-24T11:52:51;95184.63;;;34.03;46.33
20119;BME280;10220;42.716;23.306;2023-07-24T11:55:31;95178.13;;;34.04;47.18
20119;BME280;10220;42.716;23.306;2023-07-24T11:57:58;95173.19;;;34.06;46.08
20119;BME280;10220;42.716;23.306;2023-07-24T12:00:25;95171.50;;;34.17;44.32
20119;BME280;10220;42.716;23.306;2023-07-24T12:02:51;95171.34;;;34.10;45.02
20119;BME280;10220;42.716;23.306;2023-07-24T12:05:17;95159.19;;;33.86;45.65
20119;BME280;10220;42.716;23.306;2023-07-24T12:07:43;95166.06;;;33.83;45.99
20119;BME280;10220;42.716;23.306;2023-07-24T12:10:12;95163.53;;;33.90;45.95
20119;BME280;10220;42.716;23.306;2023-07-24T12:12:47;95146.63;;;34.05;45.48
20119;BME280;10220;42.716;23.306;2023-07-24T12:15:14;95159.63;;;33.88;46.36
20119;BME280;10220;42.716;23.306;2023-07-24T12:17:40;95163.09;;;34.03;46.36
20119;BME280;10220;42.716;23.306;2023-07-24T12:20:07;95161.69;;;33.79;46.21
20119;BME280;10220;42.716;23.306;2023-07-24T12:22:37;95169.84;;;33.51;47.84
20119;BME280;10220;42.716;23.306;2023-07-24T12:25:04;95161.88;;;33.55;47.03
20119;BME280;10220;42.716;23.306;2023-07-24T12:27:30;95160.66;;;33.52;45.78
20119;BME280;10220;42.716;23.306;2023-07-24T12:29:55;95153.91;;;33.58;46.29
20119;BME280;10220;42.716;23.306;2023-07-24T12:32:21;95135.25;;;33.81;45.48
20119;BME280;10220;42.716;23.306;2023-07-24T12:34:49;95127.59;;;33.83;44.75
20119;BME280;10220;42.716;23.306;2023-07-24T12:37:15;95154.84;;;33.96;45.93
20119;BME280;10220;42.716;23.306;2023-07-24T12:39:40;95144.06;;;33.96;46.86
20119;BME280;10220;42.716;23.306;2023-07-24T12:42:11;95139.81;;;33.80;47.72
20119;BME280;10220;42.716;23.306;2023-07-24T12:44:37;95135.03;;;33.89;46.88
20119;BME280;10220;42.716;23.306;2023-07-24T12:47:04;95135.16;;;33.46;47.27